Hauptseite
METAR-TAF:

METAR-TAF

Flughäfen :

Newquay Cornwall Airport

Newquay Cornwall, England

Breite: 50-26N, Länge: 005-00W, Höhe: 119 m

Beobachtung

Neuester Wetterbericht von vor 41 Minuten, um 12:50 UTC
Wind 16 kt aus Nord
Temperatur 13°C
Luftfeuchtigkeit 94%
Luftdruck 1009 hPa
Sichtweite 10 km oder mehr
Geschlossene Wolkendecke in der Höhe von 700 ft

METAR: EGHQ 031250Z 36016KT 9999 OVC007 13/12 Q1009

Zeit: 14:31 (13:31 UTC)

Prognose

Neuester Wetterbericht von vor 5 Stunden und 32 Minuten, um 07:59 UTC
Gültige Prognose vom 03 um 09 UTC bis 03 um 18 UTC
Wind 12 kt aus Nord
Sichtweite 10 km oder mehr
Durchbrochene Bewölkung in der Höhe von 2500 ft
Zeitweise
vom 03 um 09 UTC bis 03 um 18 UTC
Sichtweite: 6000 m
Durchbrochene Bewölkung in der Höhe von 700 ft
Regen

TAF: EGHQ 030759Z 0309/0318 36012KT 9999 BKN025 TEMPO 0309/0318 6000 RA BKN007

Wetterbeobachtungen und Prognosen von mehr als 4000 Flughäfen (METAR und TAF Bericht).

Die verfügbaren Stationen werden durch gelbe und rote Markierungen auf der Karte dargestellt.

Führen Sie die Maus auf sie, um den Namen der Station zu sehen.

Darauf klicken, um die Beobachtung von Wetterbeobachtungen und Prognosen zu sehen.

Um die Karte zu ändern : klicken Sie auf den grünen Tasten mit einem schwarzen Kreuz Zum Vergrößern, auf den grünen Button mit einem Gedankenstrich zu verkleinern, oder auf die grünen Pfeile für benachbarte Karten.


METAR-TAF: